sensor_id;sensor_type;location;lat;lon;timestamp;temperature;humidity
60848;DHT22;46681;47.696;9.140;2022-11-20T00:00:48;10.20;62.00
60848;DHT22;46681;47.696;9.140;2022-11-20T00:03:15;10.20;62.00
60848;DHT22;46681;47.696;9.140;2022-11-20T00:05:41;10.20;62.00
60848;DHT22;46681;47.696;9.140;2022-11-20T00:08:07;10.20;62.20
60848;DHT22;46681;47.696;9.140;2022-11-20T00:10:36;10.30;62.30
60848;DHT22;46681;47.696;9.140;2022-11-20T00:13:02;10.30;62.30
60848;DHT22;46681;47.696;9.140;2022-11-20T00:15:27;10.30;62.30
60848;DHT22;46681;47.696;9.140;2022-11-20T00:17:53;10.30;62.30
60848;DHT22;46681;47.696;9.140;2022-11-20T00:20:18;10.30;62.20
60848;DHT22;46681;47.696;9.140;2022-11-20T00:22:44;10.30;62.30
60848;DHT22;46681;47.696;9.140;2022-11-20T00:25:09;10.40;62.30
60848;DHT22;46681;47.696;9.140;2022-11-20T00:27:35;10.40;62.30
60848;DHT22;46681;47.696;9.140;2022-11-20T00:30:00;10.40;62.30
60848;DHT22;46681;47.696;9.140;2022-11-20T00:32:26;10.40;62.20
60848;DHT22;46681;47.696;9.140;2022-11-20T00:34:52;10.40;62.30
60848;DHT22;46681;47.696;9.140;2022-11-20T00:37:17;10.40;62.20
60848;DHT22;46681;47.696;9.140;2022-11-20T00:39:43;10.40;62.10
60848;DHT22;46681;47.696;9.140;2022-11-20T00:42:08;10.50;62.10
60848;DHT22;46681;47.696;9.140;2022-11-20T00:44:34;10.50;62.20
60848;DHT22;46681;47.696;9.140;2022-11-20T00:46:59;10.50;62.10
60848;DHT22;46681;47.696;9.140;2022-11-20T00:49:26;10.50;62.10
60848;DHT22;46681;47.696;9.140;2022-11-20T00:51:51;10.50;61.90
60848;DHT22;46681;47.696;9.140;2022-11-20T00:54:17;10.50;62.00
60848;DHT22;46681;47.696;9.140;2022-11-20T00:56:42;10.50;62.00
60848;DHT22;46681;47.696;9.140;2022-11-20T00:59:09;10.50;62.10
60848;DHT22;46681;47.696;9.140;2022-11-20T01:01:36;10.60;62.00
60848;DHT22;46681;47.696;9.140;2022-11-20T01:04:02;10.50;62.00
60848;DHT22;46681;47.696;9.140;2022-11-20T01:06:39;10.60;62.00
60848;DHT22;46681;47.696;9.140;2022-11-20T01:09:10;10.60;62.00
60848;DHT22;46681;47.696;9.140;2022-11-20T01:11:42;10.60;62.00
60848;DHT22;46681;47.696;9.140;2022-11-20T01:14:17;10.50;61.90
60848;DHT22;46681;47.696;9.140;2022-11-20T01:16:47;10.60;62.10
60848;DHT22;46681;47.696;9.140;2022-11-20T01:19:17;10.60;62.20
60848;DHT22;46681;47.696;9.140;2022-11-20T01:21:45;10.60;62.10
60848;DHT22;46681;47.696;9.140;2022-11-20T01:24:14;10.60;62.10
60848;DHT22;46681;47.696;9.140;2022-11-20T01:26:41;10.60;62.10
60848;DHT22;46681;47.696;9.140;2022-11-20T01:29:15;10.60;62.10
60848;DHT22;46681;47.696;9.140;2022-11-20T01:31:41;10.60;62.10
60848;DHT22;46681;47.696;9.140;2022-11-20T01:34:11;10.60;62.20
60848;DHT22;46681;47.696;9.140;2022-11-20T01:36:38;10.60;62.10
60848;DHT22;46681;47.696;9.140;2022-11-20T01:39:07;10.60;62.00
60848;DHT22;46681;47.696;9.140;2022-11-20T01:41:34;10.60;62.10
60848;DHT22;46681;47.696;9.140;2022-11-20T01:44:00;10.70;62.10
60848;DHT22;46681;47.696;9.140;2022-11-20T01:46:28;10.60;62.10
60848;DHT22;46681;47.696;9.140;2022-11-20T01:51:57;10.60;62.10
60848;DHT22;46681;47.696;9.140;2022-11-20T01:54:40;10.60;62.20
60848;DHT22;46681;47.696;9.140;2022-11-20T01:57:09;10.60;62.10
60848;DHT22;46681;47.696;9.140;2022-11-20T01:59:40;10.60;62.00
60848;DHT22;46681;47.696;9.140;2022-11-20T02:02:09;10.60;62.10
60848;DHT22;46681;47.696;9.140;2022-11-20T02:04:35;10.60;62.10
60848;DHT22;46681;47.696;9.140;2022-11-20T02:07:01;10.60;62.00
60848;DHT22;46681;47.696;9.140;2022-11-20T02:09:28;10.60;62.00
60848;DHT22;46681;47.696;9.140;2022-11-20T02:11:55;10.60;62.00
60848;DHT22;46681;47.696;9.140;2022-11-20T02:14:21;10.50;62.00
60848;DHT22;46681;47.696;9.140;2022-11-20T02:16:48;10.60;62.10
60848;DHT22;46681;47.696;9.140;2022-11-20T02:24:30;10.50;62.00
60848;DHT22;46681;47.696;9.140;2022-11-20T02:27:11;10.50;62.00
60848;DHT22;46681;47.696;9.140;2022-11-20T02:29:48;10.50;62.00
60848;DHT22;46681;47.696;9.140;2022-11-20T02:32:24;10.50;62.00
60848;DHT22;46681;47.696;9.140;2022-11-20T02:34:51;10.40;62.00
60848;DHT22;46681;47.696;9.140;2022-11-20T02:37:17;10.50;62.10
60848;DHT22;46681;47.696;9.140;2022-11-20T02:39:46;10.40;62.00
60848;DHT22;46681;47.696;9.140;2022-11-20T02:42:12;10.40;61.90
60848;DHT22;46681;47.696;9.140;2022-11-20T02:44:40;10.40;61.90
60848;DHT22;46681;47.696;9.140;2022-11-20T02:47:07;10.40;62.00
60848;DHT22;46681;47.696;9.140;2022-11-20T02:49:32;10.40;62.00
60848;DHT22;46681;47.696;9.140;2022-11-20T02:51:58;10.40;62.00
60848;DHT22;46681;47.696;9.140;2022-11-20T02:54:23;10.40;62.00
60848;DHT22;46681;47.696;9.140;2022-11-20T02:56:49;10.40;61.90
60848;DHT22;46681;47.696;9.140;2022-11-20T02:59:14;10.40;62.00
60848;DHT22;46681;47.696;9.140;2022-11-20T03:01:42;10.40;61.90
60848;DHT22;46681;47.696;9.140;2022-11-20T03:04:07;10.40;61.80
60848;DHT22;46681;47.696;9.140;2022-11-20T03:06:34;10.30;61.80
60848;DHT22;46681;47.696;9.140;2022-11-20T03:09:01;10.30;61.80
60848;DHT22;46681;47.696;9.140;2022-11-20T03:11:27;10.30;61.80
60848;DHT22;46681;47.696;9.140;2022-11-20T03:13:53;10.30;61.90
60848;DHT22;46681;47.696;9.140;2022-11-20T03:16:21;10.30;61.80
60848;DHT22;46681;47.696;9.140;2022-11-20T03:18:48;10.40;61.90
60848;DHT22;46681;47.696;9.140;2022-11-20T03:21:16;10.30;61.80
60848;DHT22;46681;47.696;9.140;2022-11-20T03:23:41;10.30;61.90
60848;DHT22;46681;47.696;9.140;2022-11-20T03:26:21;10.30;61.90
60848;DHT22;46681;47.696;9.140;2022-11-20T03:28:49;10.30;62.00
60848;DHT22;46681;47.696;9.140;2022-11-20T03:31:17;10.30;62.00
60848;DHT22;46681;47.696;9.140;2022-11-20T03:33:44;10.30;61.90
60848;DHT22;46681;47.696;9.140;2022-11-20T03:36:14;10.30;61.90
60848;DHT22;46681;47.696;9.140;2022-11-20T03:38:41;10.30;61.90
60848;DHT22;46681;47.696;9.140;2022-11-20T03:41:12;10.30;62.00
60848;DHT22;46681;47.696;9.140;2022-11-20T03:43:40;10.30;62.00
60848;DHT22;46681;47.696;9.140;2022-11-20T03:46:06;10.30;61.90
60848;DHT22;46681;47.696;9.140;2022-11-20T03:48:32;10.30;61.90
60848;DHT22;46681;47.696;9.140;2022-11-20T03:51:28;10.30;62.00
60848;DHT22;46681;47.696;9.140;2022-11-20T03:53:56;10.30;62.00
60848;DHT22;46681;47.696;9.140;2022-11-20T03:56:23;10.30;62.00
60848;DHT22;46681;47.696;9.140;2022-11-20T03:58:49;10.30;62.00
60848;DHT22;46681;47.696;9.140;2022-11-20T04:01:17;10.30;61.90
60848;DHT22;46681;47.696;9.140;2022-11-20T04:03:45;10.30;61.90
60848;DHT22;46681;47.696;9.140;2022-11-20T04:06:12;10.30;61.80
60848;DHT22;46681;47.696;9.140;2022-11-20T04:08:40;10.30;61.80
60848;DHT22;46681;47.696;9.140;2022-11-20T04:13:41;10.30;61.80
60848;DHT22;46681;47.696;9.140;2022-11-20T04:16:08;10.30;61.60
60848;DHT22;46681;47.696;9.140;2022-11-20T04:18:34;10.30;61.80
60848;DHT22;46681;47.696;9.140;2022-11-20T04:21:00;10.30;61.70
60848;DHT22;46681;47.696;9.140;2022-11-20T04:23:26;10.30;61.60
60848;DHT22;46681;47.696;9.140;2022-11-20T04:25:52;10.30;61.80
60848;DHT22;46681;47.696;9.140;2022-11-20T04:28:19;10.30;61.70
60848;DHT22;46681;47.696;9.140;2022-11-20T04:30:45;10.30;61.80
60848;DHT22;46681;47.696;9.140;2022-11-20T04:33:11;10.30;61.70
60848;DHT22;46681;47.696;9.140;2022-11-20T04:35:37;10.30;61.70
60848;DHT22;46681;47.696;9.140;2022-11-20T04:38:03;10.30;61.60
60848;DHT22;46681;47.696;9.140;2022-11-20T04:40:32;10.20;61.70
60848;DHT22;46681;47.696;9.140;2022-11-20T04:42:57;10.30;61.80
60848;DHT22;46681;47.696;9.140;2022-11-20T04:45:23;10.30;61.70
60848;DHT22;46681;47.696;9.140;2022-11-20T04:47:49;10.20;62.00
60848;DHT22;46681;47.696;9.140;2022-11-20T04:50:14;10.30;61.50
60848;DHT22;46681;47.696;9.140;2022-11-20T04:52:40;10.30;61.40
60848;DHT22;46681;47.696;9.140;2022-11-20T04:55:06;10.20;61.40
60848;DHT22;46681;47.696;9.140;2022-11-20T04:57:32;10.20;61.30
60848;DHT22;46681;47.696;9.140;2022-11-20T04:59:57;10.20;61.40
60848;DHT22;46681;47.696;9.140;2022-11-20T05:02:23;10.20;61.20
60848;DHT22;46681;47.696;9.140;2022-11-20T05:04:48;10.20;61.20
60848;DHT22;46681;47.696;9.140;2022-11-20T05:07:14;10.20;61.10
60848;DHT22;46681;47.696;9.140;2022-11-20T05:09:39;10.20;61.10
60848;DHT22;46681;47.696;9.140;2022-11-20T05:12:07;10.20;61.10
60848;DHT22;46681;47.696;9.140;2022-11-20T05:14:35;10.20;61.10
60848;DHT22;46681;47.696;9.140;2022-11-20T05:17:00;10.10;61.00
60848;DHT22;46681;47.696;9.140;2022-11-20T05:19:26;10.10;61.00
60848;DHT22;46681;47.696;9.140;2022-11-20T05:21:51;10.10;61.00
60848;DHT22;46681;47.696;9.140;2022-11-20T05:24:17;10.10;61.00
60848;DHT22;46681;47.696;9.140;2022-11-20T05:26:42;10.10;61.00
60848;DHT22;46681;47.696;9.140;2022-11-20T05:29:10;10.10;60.90
60848;DHT22;46681;47.696;9.140;2022-11-20T05:31:40;10.10;60.90
60848;DHT22;46681;47.696;9.140;2022-11-20T05:34:05;10.10;60.70
60848;DHT22;46681;47.696;9.140;2022-11-20T05:36:31;10.20;60.60
60848;DHT22;46681;47.696;9.140;2022-11-20T05:38:58;10.20;60.70
60848;DHT22;46681;47.696;9.140;2022-11-20T05:41:25;10.20;60.60
60848;DHT22;46681;47.696;9.140;2022-11-20T05:43:50;10.20;60.50
60848;DHT22;46681;47.696;9.140;2022-11-20T05:46:22;10.20;60.50
60848;DHT22;46681;47.696;9.140;2022-11-20T05:48:47;10.20;60.50
60848;DHT22;46681;47.696;9.140;2022-11-20T05:51:16;10.20;60.50
60848;DHT22;46681;47.696;9.140;2022-11-20T05:53:44;10.30;60.40
60848;DHT22;46681;47.696;9.140;2022-11-20T05:56:15;10.30;60.40
60848;DHT22;46681;47.696;9.140;2022-11-20T05:58:42;10.30;60.30
60848;DHT22;46681;47.696;9.140;2022-11-20T06:01:20;10.30;60.50
60848;DHT22;46681;47.696;9.140;2022-11-20T06:03:47;10.30;60.30
60848;DHT22;46681;47.696;9.140;2022-11-20T06:06:14;10.40;60.40
60848;DHT22;46681;47.696;9.140;2022-11-20T06:08:39;10.30;60.30
60848;DHT22;46681;47.696;9.140;2022-11-20T06:11:06;10.40;60.40
60848;DHT22;46681;47.696;9.140;2022-11-20T06:13:32;10.40;60.40
60848;DHT22;46681;47.696;9.140;2022-11-20T06:16:00;10.40;60.40
60848;DHT22;46681;47.696;9.140;2022-11-20T06:18:27;10.30;60.40
60848;DHT22;46681;47.696;9.140;2022-11-20T06:21:05;10.30;60.40
60848;DHT22;46681;47.696;9.140;2022-11-20T06:23:32;10.30;60.30
60848;DHT22;46681;47.696;9.140;2022-11-20T06:26:06;10.30;60.80
60848;DHT22;46681;47.696;9.140;2022-11-20T06:28:34;10.30;60.40
60848;DHT22;46681;47.696;9.140;2022-11-20T06:31:00;10.30;60.60
60848;DHT22;46681;47.696;9.140;2022-11-20T06:33:26;10.30;60.60
60848;DHT22;46681;47.696;9.140;2022-11-20T06:35:52;10.30;60.70
60848;DHT22;46681;47.696;9.140;2022-11-20T06:38:18;10.30;60.70
60848;DHT22;46681;47.696;9.140;2022-11-20T06:40:44;10.30;60.70
60848;DHT22;46681;47.696;9.140;2022-11-20T06:43:09;10.30;60.70
60848;DHT22;46681;47.696;9.140;2022-11-20T06:45:35;10.30;60.80
60848;DHT22;46681;47.696;9.140;2022-11-20T06:48:01;10.30;60.80
60848;DHT22;46681;47.696;9.140;2022-11-20T06:50:26;10.30;60.70
60848;DHT22;46681;47.696;9.140;2022-11-20T06:52:52;10.20;60.80
60848;DHT22;46681;47.696;9.140;2022-11-20T06:55:18;10.30;60.80
60848;DHT22;46681;47.696;9.140;2022-11-20T06:57:45;10.20;60.70
60848;DHT22;46681;47.696;9.140;2022-11-20T07:00:11;10.20;60.70
60848;DHT22;46681;47.696;9.140;2022-11-20T07:02:36;10.20;60.70
60848;DHT22;46681;47.696;9.140;2022-11-20T07:05:02;10.20;60.60
60848;DHT22;46681;47.696;9.140;2022-11-20T07:07:28;10.20;60.70
60848;DHT22;46681;47.696;9.140;2022-11-20T07:09:53;10.20;60.30
60848;DHT22;46681;47.696;9.140;2022-11-20T07:12:19;10.10;60.70
60848;DHT22;46681;47.696;9.140;2022-11-20T07:14:44;10.10;60.40
60848;DHT22;46681;47.696;9.140;2022-11-20T07:17:10;10.10;60.70
60848;DHT22;46681;47.696;9.140;2022-11-20T07:19:36;10.10;60.70
60848;DHT22;46681;47.696;9.140;2022-11-20T07:22:02;10.20;60.80
60848;DHT22;46681;47.696;9.140;2022-11-20T07:24:28;10.20;60.80
60848;DHT22;46681;47.696;9.140;2022-11-20T07:26:54;10.20;60.80
60848;DHT22;46681;47.696;9.140;2022-11-20T07:29:19;10.20;60.70
60848;DHT22;46681;47.696;9.140;2022-11-20T07:31:46;10.20;60.80
60848;DHT22;46681;47.696;9.140;2022-11-20T07:34:11;10.20;60.70
60848;DHT22;46681;47.696;9.140;2022-11-20T07:36:39;10.20;60.80
60848;DHT22;46681;47.696;9.140;2022-11-20T07:39:05;10.20;60.70
60848;DHT22;46681;47.696;9.140;2022-11-20T07:41:31;10.20;60.70
60848;DHT22;46681;47.696;9.140;2022-11-20T07:43:56;10.20;60.70
60848;DHT22;46681;47.696;9.140;2022-11-20T07:46:22;10.20;60.80
60848;DHT22;46681;47.696;9.140;2022-11-20T07:48:47;10.20;60.50
60848;DHT22;46681;47.696;9.140;2022-11-20T07:51:13;10.20;60.60
60848;DHT22;46681;47.696;9.140;2022-11-20T07:53:39;10.20;60.50
60848;DHT22;46681;47.696;9.140;2022-11-20T07:56:04;10.20;60.60
60848;DHT22;46681;47.696;9.140;2022-11-20T07:58:30;10.30;63.20
60848;DHT22;46681;47.696;9.140;2022-11-20T08:00:58;10.30;61.90
60848;DHT22;46681;47.696;9.140;2022-11-20T08:03:23;10.30;61.60
60848;DHT22;46681;47.696;9.140;2022-11-20T08:05:49;10.40;61.50
60848;DHT22;46681;47.696;9.140;2022-11-20T08:08:14;10.40;63.00
60848;DHT22;46681;47.696;9.140;2022-11-20T08:10:42;10.40;62.80
60848;DHT22;46681;47.696;9.140;2022-11-20T08:13:08;10.40;61.80
60848;DHT22;46681;47.696;9.140;2022-11-20T08:15:34;10.50;61.70
60848;DHT22;46681;47.696;9.140;2022-11-20T08:18:04;10.40;61.50
60848;DHT22;46681;47.696;9.140;2022-11-20T08:20:32;10.50;62.60
60848;DHT22;46681;47.696;9.140;2022-11-20T08:23:00;10.60;61.80
60848;DHT22;46681;47.696;9.140;2022-11-20T08:25:30;10.60;61.50
60848;DHT22;46681;47.696;9.140;2022-11-20T08:28:00;10.60;61.20
60848;DHT22;46681;47.696;9.140;2022-11-20T08:30:26;10.60;60.90
60848;DHT22;46681;47.696;9.140;2022-11-20T08:32:53;10.60;60.80
60848;DHT22;46681;47.696;9.140;2022-11-20T08:35:19;10.70;60.80
60848;DHT22;46681;47.696;9.140;2022-11-20T08:37:47;10.70;60.60
60848;DHT22;46681;47.696;9.140;2022-11-20T08:40:13;10.70;61.10
60848;DHT22;46681;47.696;9.140;2022-11-20T08:42:50;10.70;60.40
60848;DHT22;46681;47.696;9.140;2022-11-20T08:45:19;10.70;60.20
60848;DHT22;46681;47.696;9.140;2022-11-20T08:47:45;10.80;60.20
60848;DHT22;46681;47.696;9.140;2022-11-20T08:50:13;10.80;60.30
60848;DHT22;46681;47.696;9.140;2022-11-20T08:52:41;10.80;60.40
60848;DHT22;46681;47.696;9.140;2022-11-20T08:55:09;10.80;60.30
60848;DHT22;46681;47.696;9.140;2022-11-20T08:57:38;10.80;60.20
60848;DHT22;46681;47.696;9.140;2022-11-20T09:00:05;10.80;60.10
60848;DHT22;46681;47.696;9.140;2022-11-20T09:02:36;10.90;60.10
60848;DHT22;46681;47.696;9.140;2022-11-20T09:05:02;10.90;60.20
60848;DHT22;46681;47.696;9.140;2022-11-20T09:07:29;10.90;60.00
60848;DHT22;46681;47.696;9.140;2022-11-20T09:09:56;10.90;60.10
60848;DHT22;46681;47.696;9.140;2022-11-20T09:12:21;10.90;60.10
60848;DHT22;46681;47.696;9.140;2022-11-20T09:14:49;10.90;60.10
60848;DHT22;46681;47.696;9.140;2022-11-20T09:17:14;10.90;60.60
60848;DHT22;46681;47.696;9.140;2022-11-20T09:19:40;10.90;60.10
60848;DHT22;46681;47.696;9.140;2022-11-20T09:22:05;10.80;59.90
60848;DHT22;46681;47.696;9.140;2022-11-20T09:24:31;10.80;60.10
60848;DHT22;46681;47.696;9.140;2022-11-20T09:26:56;10.80;60.20
60848;DHT22;46681;47.696;9.140;2022-11-20T09:29:23;10.80;60.00
60848;DHT22;46681;47.696;9.140;2022-11-20T09:31:49;10.70;59.80
60848;DHT22;46681;47.696;9.140;2022-11-20T09:34:14;10.70;60.10
60848;DHT22;46681;47.696;9.140;2022-11-20T09:36:44;10.80;60.20
60848;DHT22;46681;47.696;9.140;2022-11-20T09:39:10;10.80;59.70
60848;DHT22;46681;47.696;9.140;2022-11-20T09:41:55;10.80;59.70
60848;DHT22;46681;47.696;9.140;2022-11-20T09:47:11;10.90;59.40
60848;DHT22;46681;47.696;9.140;2022-11-20T09:55:16;11.10;58.70
60848;DHT22;46681;47.696;9.140;2022-11-20T09:57:46;11.00;62.90
60848;DHT22;46681;47.696;9.140;2022-11-20T10:00:15;11.10;62.00
60848;DHT22;46681;47.696;9.140;2022-11-20T10:02:53;11.10;61.20
60848;DHT22;46681;47.696;9.140;2022-11-20T10:08:23;11.10;60.40
60848;DHT22;46681;47.696;9.140;2022-11-20T10:16:33;11.20;59.90
60848;DHT22;46681;47.696;9.140;2022-11-20T10:22:04;11.30;59.50
60848;DHT22;46681;47.696;9.140;2022-11-20T10:30:13;11.30;59.20
60848;DHT22;46681;47.696;9.140;2022-11-20T10:32:42;11.30;59.30
60848;DHT22;46681;47.696;9.140;2022-11-20T10:35:21;11.30;58.80
60848;DHT22;46681;47.696;9.140;2022-11-20T10:37:58;11.30;59.00
60848;DHT22;46681;47.696;9.140;2022-11-20T10:40:51;11.30;58.90
60848;DHT22;46681;47.696;9.140;2022-11-20T10:43:32;11.40;59.00
60848;DHT22;46681;47.696;9.140;2022-11-20T10:46:14;11.40;59.00
60848;DHT22;46681;47.696;9.140;2022-11-20T10:48:44;11.20;58.30
60848;DHT22;46681;47.696;9.140;2022-11-20T10:51:18;11.10;58.20
60848;DHT22;46681;47.696;9.140;2022-11-20T10:57:10;11.10;57.90
60848;DHT22;46681;47.696;9.140;2022-11-20T11:02:41;11.10;57.50
60848;DHT22;46681;47.696;9.140;2022-11-20T11:07:52;11.20;57.70
60848;DHT22;46681;47.696;9.140;2022-11-20T11:10:39;11.20;58.30
60848;DHT22;46681;47.696;9.140;2022-11-20T11:13:18;11.20;58.10
60848;DHT22;46681;47.696;9.140;2022-11-20T11:15:45;11.30;58.00
60848;DHT22;46681;47.696;9.140;2022-11-20T11:18:11;11.30;57.90
60848;DHT22;46681;47.696;9.140;2022-11-20T11:20:50;11.30;58.00
60848;DHT22;46681;47.696;9.140;2022-11-20T11:23:34;11.30;58.10
60848;DHT22;46681;47.696;9.140;2022-11-20T11:26:03;11.30;58.10
60848;DHT22;46681;47.696;9.140;2022-11-20T11:28:31;11.30;58.20
60848;DHT22;46681;47.696;9.140;2022-11-20T11:30:59;11.30;58.20
60848;DHT22;46681;47.696;9.140;2022-11-20T11:33:30;11.40;58.10
60848;DHT22;46681;47.696;9.140;2022-11-20T11:36:03;11.30;58.10
60848;DHT22;46681;47.696;9.140;2022-11-20T11:38:36;11.40;58.10
60848;DHT22;46681;47.696;9.140;2022-11-20T11:41:06;11.40;58.20
60848;DHT22;46681;47.696;9.140;2022-11-20T11:43:35;11.40;58.60
60848;DHT22;46681;47.696;9.140;2022-11-20T11:46:34;11.30;58.10
60848;DHT22;46681;47.696;9.140;2022-11-20T11:49:17;11.30;58.30
60848;DHT22;46681;47.696;9.140;2022-11-20T11:52:24;11.30;58.40
60848;DHT22;46681;47.696;9.140;2022-11-20T11:55:00;11.30;58.60
60848;DHT22;46681;47.696;9.140;2022-11-20T12:00:16;11.40;58.70
60848;DHT22;46681;47.696;9.140;2022-11-20T12:05:24;11.40;58.70
60848;DHT22;46681;47.696;9.140;2022-11-20T12:08:17;11.40;58.10
60848;DHT22;46681;47.696;9.140;2022-11-20T12:10:56;11.50;61.40
60848;DHT22;46681;47.696;9.140;2022-11-20T12:15:58;11.40;59.50
60848;DHT22;46681;47.696;9.140;2022-11-20T12:18:24;11.40;59.30
60848;DHT22;46681;47.696;9.140;2022-11-20T12:24:03;11.50;59.10
60848;DHT22;46681;47.696;9.140;2022-11-20T12:27:04;11.40;59.00
60848;DHT22;46681;47.696;9.140;2022-11-20T12:30:02;11.50;58.90
60848;DHT22;46681;47.696;9.140;2022-11-20T12:38:27;12.70;57.80
60848;DHT22;46681;47.696;9.140;2022-11-20T12:49:50;15.10;52.20
60848;DHT22;46681;47.696;9.140;2022-11-20T12:55:25;15.20;50.60
60848;DHT22;46681;47.696;9.140;2022-11-20T13:00:33;14.50;50.90
60848;DHT22;46681;47.696;9.140;2022-11-20T13:03:27;14.30;51.30
60848;DHT22;46681;47.696;9.140;2022-11-20T13:06:17;14.00;51.00
60848;DHT22;46681;47.696;9.140;2022-11-20T13:08:53;13.80;51.80
60848;DHT22;46681;47.696;9.140;2022-11-20T13:16:33;13.40;53.00
60848;DHT22;46681;47.696;9.140;2022-11-20T13:19:10;13.30;52.80
60848;DHT22;46681;47.696;9.140;2022-11-20T13:21:43;13.40;53.10
60848;DHT22;46681;47.696;9.140;2022-11-20T13:27:34;13.80;52.00
60848;DHT22;46681;47.696;9.140;2022-11-20T13:29:36;13.80;52.60
60848;DHT22;46681;47.696;9.140;2022-11-20T13:32:14;13.70;52.40
60848;DHT22;46681;47.696;9.140;2022-11-20T13:35:00;13.60;52.90
60848;DHT22;46681;47.696;9.140;2022-11-20T13:37:35;13.50;53.00
60848;DHT22;46681;47.696;9.140;2022-11-20T13:40:19;13.40;53.30
60848;DHT22;46681;47.696;9.140;2022-11-20T13:42:51;13.30;53.60
60848;DHT22;46681;47.696;9.140;2022-11-20T13:45:32;13.20;53.70
60848;DHT22;46681;47.696;9.140;2022-11-20T13:48:02;13.10;53.90
60848;DHT22;46681;47.696;9.140;2022-11-20T13:54:04;13.10;54.40
60848;DHT22;46681;47.696;9.140;2022-11-20T14:01:39;13.50;53.90
60848;DHT22;46681;47.696;9.140;2022-11-20T14:04:09;13.70;53.10
60848;DHT22;46681;47.696;9.140;2022-11-20T14:06:45;14.00;53.30
60848;DHT22;46681;47.696;9.140;2022-11-20T14:09:28;14.30;53.10
60848;DHT22;46681;47.696;9.140;2022-11-20T14:11:55;14.60;52.60
60848;DHT22;46681;47.696;9.140;2022-11-20T14:14:23;14.70;51.30
60848;DHT22;46681;47.696;9.140;2022-11-20T14:17:09;14.70;51.20
60848;DHT22;46681;47.696;9.140;2022-11-20T14:19:47;14.70;50.80
60848;DHT22;46681;47.696;9.140;2022-11-20T14:22:26;14.50;50.60
60848;DHT22;46681;47.696;9.140;2022-11-20T14:25:23;14.40;51.10
60848;DHT22;46681;47.696;9.140;2022-11-20T14:27:59;14.30;50.90
60848;DHT22;46681;47.696;9.140;2022-11-20T14:30:47;14.10;51.30
60848;DHT22;46681;47.696;9.140;2022-11-20T14:33:18;13.90;51.50
60848;DHT22;46681;47.696;9.140;2022-11-20T14:35:49;13.80;52.20
60848;DHT22;46681;47.696;9.140;2022-11-20T14:38:23;13.70;52.40
60848;DHT22;46681;47.696;9.140;2022-11-20T14:40:52;13.50;52.90
60848;DHT22;46681;47.696;9.140;2022-11-20T14:43:19;13.40;53.30
60848;DHT22;46681;47.696;9.140;2022-11-20T14:46:07;13.40;53.60
60848;DHT22;46681;47.696;9.140;2022-11-20T14:51:34;13.20;54.40
60848;DHT22;46681;47.696;9.140;2022-11-20T14:54:23;13.10;54.40
60848;DHT22;46681;47.696;9.140;2022-11-20T14:56:56;13.10;54.40
60848;DHT22;46681;47.696;9.140;2022-11-20T14:59:24;13.00;54.50
60848;DHT22;46681;47.696;9.140;2022-11-20T15:02:12;12.90;54.70
60848;DHT22;46681;47.696;9.140;2022-11-20T15:04:59;12.80;54.90
60848;DHT22;46681;47.696;9.140;2022-11-20T15:07:30;12.70;54.90
60848;DHT22;46681;47.696;9.140;2022-11-20T15:10:34;12.70;55.10
60848;DHT22;46681;47.696;9.140;2022-11-20T15:13:13;12.60;55.30
60848;DHT22;46681;47.696;9.140;2022-11-20T15:15:54;12.50;55.60
60848;DHT22;46681;47.696;9.140;2022-11-20T15:18:30;12.50;55.60
60848;DHT22;46681;47.696;9.140;2022-11-20T15:21:03;12.40;55.80
60848;DHT22;46681;47.696;9.140;2022-11-20T15:23:29;12.40;55.90
60848;DHT22;46681;47.696;9.140;2022-11-20T15:25:56;12.30;56.00
60848;DHT22;46681;47.696;9.140;2022-11-20T15:28:39;12.30;56.20
60848;DHT22;46681;47.696;9.140;2022-11-20T15:31:08;12.20;56.30
60848;DHT22;46681;47.696;9.140;2022-11-20T15:33:35;12.10;56.70
60848;DHT22;46681;47.696;9.140;2022-11-20T15:36:02;12.10;56.50
60848;DHT22;46681;47.696;9.140;2022-11-20T15:38:28;12.10;59.00
60848;DHT22;46681;47.696;9.140;2022-11-20T15:40:58;12.10;60.20
60848;DHT22;46681;47.696;9.140;2022-11-20T15:43:25;12.00;59.00
60848;DHT22;46681;47.696;9.140;2022-11-20T15:45:54;12.00;58.20
60848;DHT22;46681;47.696;9.140;2022-11-20T15:48:29;12.00;58.10
60848;DHT22;46681;47.696;9.140;2022-11-20T15:53:41;11.90;57.90
60848;DHT22;46681;47.696;9.140;2022-11-20T15:56:26;11.80;57.80
60848;DHT22;46681;47.696;9.140;2022-11-20T15:58:52;11.70;57.80
60848;DHT22;46681;47.696;9.140;2022-11-20T16:01:21;11.70;57.80
60848;DHT22;46681;47.696;9.140;2022-11-20T16:03:48;11.70;57.80
60848;DHT22;46681;47.696;9.140;2022-11-20T16:06:15;11.60;57.70
60848;DHT22;46681;47.696;9.140;2022-11-20T16:08:40;11.60;57.80
60848;DHT22;46681;47.696;9.140;2022-11-20T16:11:09;11.60;57.80
60848;DHT22;46681;47.696;9.140;2022-11-20T16:13:37;11.50;57.80
60848;DHT22;46681;47.696;9.140;2022-11-20T16:16:16;11.50;57.80
60848;DHT22;46681;47.696;9.140;2022-11-20T16:18:46;11.40;57.80
60848;DHT22;46681;47.696;9.140;2022-11-20T16:21:13;11.40;57.90
60848;DHT22;46681;47.696;9.140;2022-11-20T16:23:40;11.40;57.90
60848;DHT22;46681;47.696;9.140;2022-11-20T16:26:13;11.40;57.90
60848;DHT22;46681;47.696;9.140;2022-11-20T16:28:43;11.30;57.90
60848;DHT22;46681;47.696;9.140;2022-11-20T16:31:14;11.30;58.00
60848;DHT22;46681;47.696;9.140;2022-11-20T16:33:51;11.30;58.10
60848;DHT22;46681;47.696;9.140;2022-11-20T16:36:20;11.20;58.00
60848;DHT22;46681;47.696;9.140;2022-11-20T16:38:52;11.20;58.00
60848;DHT22;46681;47.696;9.140;2022-11-20T16:41:18;11.20;58.00
60848;DHT22;46681;47.696;9.140;2022-11-20T16:43:52;11.10;58.10
60848;DHT22;46681;47.696;9.140;2022-11-20T16:46:22;11.10;58.20
60848;DHT22;46681;47.696;9.140;2022-11-20T16:49:02;11.10;58.20
60848;DHT22;46681;47.696;9.140;2022-11-20T16:51:35;11.10;58.30
60848;DHT22;46681;47.696;9.140;2022-11-20T16:54:03;11.10;58.30
60848;DHT22;46681;47.696;9.140;2022-11-20T16:56:30;11.00;58.30
60848;DHT22;46681;47.696;9.140;2022-11-20T16:58:57;11.00;58.40
60848;DHT22;46681;47.696;9.140;2022-11-20T17:01:24;11.00;58.40
60848;DHT22;46681;47.696;9.140;2022-11-20T17:04:01;11.00;58.50
60848;DHT22;46681;47.696;9.140;2022-11-20T17:06:32;10.90;58.40
60848;DHT22;46681;47.696;9.140;2022-11-20T17:09:03;10.90;58.50
60848;DHT22;46681;47.696;9.140;2022-11-20T17:11:30;10.90;58.40
60848;DHT22;46681;47.696;9.140;2022-11-20T17:14:01;10.90;58.50
60848;DHT22;46681;47.696;9.140;2022-11-20T17:16:27;10.90;58.60
60848;DHT22;46681;47.696;9.140;2022-11-20T17:18:57;10.90;58.60
60848;DHT22;46681;47.696;9.140;2022-11-20T17:21:25;10.90;59.10
60848;DHT22;46681;47.696;9.140;2022-11-20T17:23:52;10.80;58.50
60848;DHT22;46681;47.696;9.140;2022-11-20T17:26:22;10.80;58.60